Aérodrome :
LOGIN :

S'inscrire | Disclaimer

   EN    FR    IT 

 










Légende :    VFR   VFR Marginal   IFR   IFR Intensif   IFR Très Intensif
Visi : 
Plafond : 
>= 8 km
>= 3000ft
5 à 8 km
1000 à 3000 ft
1500m à 5 km
500 à 1000 ft
800 à 1500m
200 à 500 ft
< 800m
< 200 ft
Symboles :   Orages  Brouillard  Fortes neiges  Fortes précipitations  Vent > 20 kt
SIGMETs :   Divers  Orages  Givrage  Turbulence  Onde Orograph.  Cendres Volcan.






- Altitude de l'aérodrome : 125 ft
- Code IATA : MGL


EDLN - Mönchengladbach

DERNIER METAR :
  • 110420Z AUTO 17003KT 120V230 9999 // BKN054/// OVC070/// 13/12 Q1008

METARs EXPIRÉS :
  • 110350Z AUTO 15004KT 110V210 9999 // SCT055/// OVC064/// 12/12 Q1008
  • 110320Z AUTO 15003KT 120V190 9999 // OVC054/// 12/12 Q1008
  • 110250Z AUTO 14003KT 9999 // OVC050/// 12/11 Q1008
  • 110220Z AUTO 11004KT 9999 // FEW050/// OVC063/// 12/12 Q1008
  • 110150Z AUTO 10004KT 9999 // FEW041/// OVC057/// 12/12 Q1009

Prévision TAF périmée.



MET'MAP, la Météo Aéronautique d'un coup d'oeil ! - Copyright ORBIFLY Décembre 2007 - Disclaimer

ORBIFLY MET'MAP TEAM :

Programmation & Développement : Alexandra Zaïnal
Sur une idée originale de : Baudouin d'Aumeries
Assistance à la programmation : Marc-Olivier Méhu
Soutien technique & logistique : Manuel Goepfert

Contact : metmap@orbifly.com




SOURCES & CREDITS :

   NOAA